KMKG/MKG METAR and TAF weather

Enter ICAO airport designator
Station Type Date Time Source
KMKG METAR 2022/01/18 06:55 UTC NOAA

KMKG 180655Z AUTO 28008KT 10SM OVC025 01/M05 A2988 RMK AO2 SLP124 T00061050


Station Type Date Time Source
KMKG Decoded METAR 2022/01/18 06:55 UTC NOAA

MUSKEGON COUNTY AIRPORT, MI, United States (KMKG) 43-10N 086-14W 191M
Jan 18, 2022 - 01:55 AM EST / 2022.01.18 0655 UTC
Wind: from the W (280 degrees) at 9 MPH (8 KT):0
Visibility: 10 mile(s):0
Sky conditions: overcast
Temperature: 33.1 F (0.6 C)
Windchill: 24 F (-4 C):1
Dew Point: 23.0 F (-5.0 C)
Relative Humidity: 66%
Pressure (altimeter): 29.88 in. Hg (1011 hPa)
ob: KMKG 180655Z AUTO 28008KT 10SM OVC025 01/M05 A2988 RMK AO2 SLP124 T00061050
cycle: 7

Station Type Date Time Source
KMKG TAF 2022/01/18 06:42 UTC NOAA

TAF KMKG 180540Z 1806/1906 29009KT P6SM SCT030 BKN050
FM180900 24006KT P6SM BKN030
FM181300 18010KT 6SM BR BKN019
FM181800 17014G23KT P6SM SCT060
FM190000 20018G32KT P6SM SCT025
FM190300 24017G30KT P6SM BKN020

Example: see airport list